sensor_id;sensor_type;location;lat;lon;timestamp;temperature;humidity
42905;DHT22;28550;51.228;4.528;2023-07-16T01:03:31;17.90;99.90
42905;DHT22;28550;51.228;4.528;2023-07-16T01:12:33;17.70;99.90
42905;DHT22;28550;51.228;4.528;2023-07-16T02:19:57;16.80;1.00
42905;DHT22;28550;51.228;4.528;2023-07-16T03:04:34;17.00;99.90
42905;DHT22;28550;51.228;4.528;2023-07-16T04:19:42;16.70;1.00
42905;DHT22;28550;51.228;4.528;2023-07-16T04:36:23;17.00;1.00
42905;DHT22;28550;51.228;4.528;2023-07-16T05:05:10;17.20;1.00
42905;DHT22;28550;51.228;4.528;2023-07-16T05:24:27;17.40;1.00
42905;DHT22;28550;51.228;4.528;2023-07-16T05:41:05;17.60;1.00
42905;DHT22;28550;51.228;4.528;2023-07-16T06:25:04;18.50;99.90
42905;DHT22;28550;51.228;4.528;2023-07-16T09:43:57;23.70;1.00
42905;DHT22;28550;51.228;4.528;2023-07-16T09:46:25;23.50;1.00
42905;DHT22;28550;51.228;4.528;2023-07-16T09:48:52;23.30;1.00
42905;DHT22;28550;51.228;4.528;2023-07-16T09:51:19;23.00;1.00
42905;DHT22;28550;51.228;4.528;2023-07-16T09:53:52;22.80;1.00
42905;DHT22;28550;51.228;4.528;2023-07-16T09:56:21;22.60;1.00
42905;DHT22;28550;51.228;4.528;2023-07-16T09:58:49;22.50;1.00
42905;DHT22;28550;51.228;4.528;2023-07-16T10:01:18;22.30;1.00
42905;DHT22;28550;51.228;4.528;2023-07-16T10:03:54;22.00;1.00
42905;DHT22;28550;51.228;4.528;2023-07-16T10:06:21;21.80;1.00
42905;DHT22;28550;51.228;4.528;2023-07-16T10:12:11;21.30;26.80
42905;DHT22;28550;51.228;4.528;2023-07-16T10:14:54;21.20;56.90
42905;DHT22;28550;51.228;4.528;2023-07-16T10:17:24;21.30;80.20
42905;DHT22;28550;51.228;4.528;2023-07-16T10:20:48;21.40;75.10
42905;DHT22;28550;51.228;4.528;2023-07-16T10:23:40;21.50;83.50
42905;DHT22;28550;51.228;4.528;2023-07-16T10:26:50;21.50;49.40
42905;DHT22;28550;51.228;4.528;2023-07-16T10:29:26;21.70;90.50
42905;DHT22;28550;51.228;4.528;2023-07-16T10:31:53;21.80;96.10
42905;DHT22;28550;51.228;4.528;2023-07-16T10:34:25;21.40;65.90
42905;DHT22;28550;51.228;4.528;2023-07-16T10:36:55;21.20;92.00
42905;DHT22;28550;51.228;4.528;2023-07-16T10:39:23;21.00;99.90
42905;DHT22;28550;51.228;4.528;2023-07-16T10:41:59;20.90;99.90
42905;DHT22;28550;51.228;4.528;2023-07-16T10:44:28;20.90;99.90
42905;DHT22;28550;51.228;4.528;2023-07-16T10:46:59;20.70;99.90
42905;DHT22;28550;51.228;4.528;2023-07-16T10:49:42;20.50;99.90
42905;DHT22;28550;51.228;4.528;2023-07-16T10:52:11;20.50;99.90
42905;DHT22;28550;51.228;4.528;2023-07-16T10:54:46;20.70;1.00
42905;DHT22;28550;51.228;4.528;2023-07-16T10:57:13;20.90;1.00
42905;DHT22;28550;51.228;4.528;2023-07-16T10:59:42;21.00;43.70
42905;DHT22;28550;51.228;4.528;2023-07-16T11:02:26;20.90;1.00
42905;DHT22;28550;51.228;4.528;2023-07-16T11:04:52;21.00;1.00
42905;DHT22;28550;51.228;4.528;2023-07-16T11:07:23;21.10;1.00
42905;DHT22;28550;51.228;4.528;2023-07-16T11:09:54;21.10;1.00
42905;DHT22;28550;51.228;4.528;2023-07-16T11:12:22;20.90;27.40
42905;DHT22;28550;51.228;4.528;2023-07-16T19:07:15;20.50;1.00
42905;DHT22;28550;51.228;4.528;2023-07-16T19:10:20;20.50;1.00
42905;DHT22;28550;51.228;4.528;2023-07-16T19:13:34;20.50;1.00
42905;DHT22;28550;51.228;4.528;2023-07-16T19:16:07;20.50;1.00
42905;DHT22;28550;51.228;4.528;2023-07-16T19:19:30;20.50;1.00
42905;DHT22;28550;51.228;4.528;2023-07-16T19:21:58;20.40;8.80
42905;DHT22;28550;51.228;4.528;2023-07-16T19:27:31;20.30;47.20
42905;DHT22;28550;51.228;4.528;2023-07-16T19:30:05;20.40;45.50
42905;DHT22;28550;51.228;4.528;2023-07-16T19:32:38;20.40;45.70
42905;DHT22;28550;51.228;4.528;2023-07-16T19:35:14;20.30;47.80
42905;DHT22;28550;51.228;4.528;2023-07-16T19:37:49;20.20;88.10
42905;DHT22;28550;51.228;4.528;2023-07-16T19:40:21;20.20;58.50
42905;DHT22;28550;51.228;4.528;2023-07-16T19:42:48;20.10;77.80
42905;DHT22;28550;51.228;4.528;2023-07-16T19:45:32;20.10;64.10
42905;DHT22;28550;51.228;4.528;2023-07-16T19:47:59;20.10;99.90
42905;DHT22;28550;51.228;4.528;2023-07-16T19:50:31;19.90;99.90
42905;DHT22;28550;51.228;4.528;2023-07-16T19:52:59;20.00;99.90
42905;DHT22;28550;51.228;4.528;2023-07-16T19:56:06;19.90;99.90
42905;DHT22;28550;51.228;4.528;2023-07-16T19:58:33;19.90;99.90
42905;DHT22;28550;51.228;4.528;2023-07-16T20:00:59;19.70;99.90
42905;DHT22;28550;51.228;4.528;2023-07-16T20:03:27;19.70;99.90
42905;DHT22;28550;51.228;4.528;2023-07-16T20:06:13;19.70;99.90
42905;DHT22;28550;51.228;4.528;2023-07-16T20:08:38;19.80;99.90
42905;DHT22;28550;51.228;4.528;2023-07-16T20:14:41;19.80;99.90
42905;DHT22;28550;51.228;4.528;2023-07-16T20:20:33;19.60;1.00
42905;DHT22;28550;51.228;4.528;2023-07-16T20:23:09;19.50;1.00
42905;DHT22;28550;51.228;4.528;2023-07-16T20:25:38;19.60;1.00
42905;DHT22;28550;51.228;4.528;2023-07-16T20:28:19;19.50;1.00
42905;DHT22;28550;51.228;4.528;2023-07-16T21:47:10;19.20;1.00
42905;DHT22;28550;51.228;4.528;2023-07-16T21:50:08;19.00;99.90
42905;DHT22;28550;51.228;4.528;2023-07-16T21:52:40;18.80;99.90
42905;DHT22;28550;51.228;4.528;2023-07-16T21:55:17;18.60;99.90
42905;DHT22;28550;51.228;4.528;2023-07-16T21:57:47;18.50;1.00
42905;DHT22;28550;51.228;4.528;2023-07-16T22:00:16;18.30;1.40
42905;DHT22;28550;51.228;4.528;2023-07-16T22:12:58;18.20;99.90
42905;DHT22;28550;51.228;4.528;2023-07-16T22:16:01;18.10;99.90
42905;DHT22;28550;51.228;4.528;2023-07-16T22:18:49;18.10;99.90
42905;DHT22;28550;51.228;4.528;2023-07-16T22:21:20;18.00;99.90
42905;DHT22;28550;51.228;4.528;2023-07-16T22:27:21;18.10;1.00
42905;DHT22;28550;51.228;4.528;2023-07-16T22:29:47;18.10;99.90
42905;DHT22;28550;51.228;4.528;2023-07-16T22:32:17;18.20;99.90
42905;DHT22;28550;51.228;4.528;2023-07-16T23:33:11;17.80;1.00
42905;DHT22;28550;51.228;4.528;2023-07-16T23:36:17;17.80;1.00
42905;DHT22;28550;51.228;4.528;2023-07-16T23:39:04;17.70;1.00
42905;DHT22;28550;51.228;4.528;2023-07-16T23:41:37;17.80;1.00
42905;DHT22;28550;51.228;4.528;2023-07-16T23:44:03;17.80;1.00
42905;DHT22;28550;51.228;4.528;2023-07-16T23:46:35;17.80;1.00
42905;DHT22;28550;51.228;4.528;2023-07-16T23:49:02;17.80;1.00
42905;DHT22;28550;51.228;4.528;2023-07-16T23:54:28;17.70;1.00
42905;DHT22;28550;51.228;4.528;2023-07-16T23:57:00;17.70;1.00
42905;DHT22;28550;51.228;4.528;2023-07-16T23:59:30;17.80;1.00
